Station: Renmark Airport

  Atmospheric Gas Attenuation - ITU Rec 676-11   --------------- db/100km ---------------
Date Time Temp RH % AH g/m3 Dew Point Wind Direction Speed kph Gust kph Barometer mB Rainfall Since 9am 24GHz 47GHz 76GHz 122GHz 134GHz 241GHz
15 00:50 8.2 97 8.13 7.8 0 0 1015 9 18.8 26.8 40.8 107.0 99.3 341.0
15 00:40 8.3 97 8.18 7.9 0 0 1014.9 9 19.0 26.9 40.9 107.4 99.9 343.0
15 00:30 8.4 96 8.15 7.8 0 0 1014.9 9 18.9 26.8 40.8 107.0 99.3 341.0
15 00:20 8.5 96 8.2 7.9 0 0 1014.9 9 19.0 26.9 40.9 107.4 99.9 343.1
15 00:10 9.2 96 8.58 8.6 0 0 1015 9 19.8 27.3 42.2 110.8 104.3 358.6
15 00:00 9.5 97 8.83 9 0 0 1015 9 20.3 27.6 43.1 113.2 107.4 369.5
14 23:50 9.5 96 8.74 8.9 0 0 1015.1 9 20.1 27.5 42.7 112.2 106.2 365.1
14 23:40 10 97 9.12 9.5 0 0 1015.1 9 20.9 28.0 44.1 115.8 110.9 381.5
14 23:30 9.3 96 8.63 8.7 0 0 1015.2 9 19.9 27.4 42.4 111.2 104.9 360.7
14 23:20 9.3 96 8.63 8.7 0 0 1015.2 9 19.9 27.4 42.4 111.2 104.9 360.7
14 23:10 9.5 96 8.74 8.9 0 0 1015.2 9 20.1 27.5 42.7 112.2 106.2 365.1
14 23:00 10 96 9.02 9.4 4 6 1015.3 9 20.7 27.8 43.7 114.7 109.5 376.6
14 22:50 10.5 96 9.31 9.9 6 7 1015.2 9 21.3 28.2 44.6 117.2 112.8 388.5
14 22:40 10.4 96 9.25 9.8 7 9 1015.1 9 21.2 28.1 44.4 116.7 112.1 386.0
14 22:30 10.4 96 9.25 9.8 7 9 1015.1 9 21.2 28.1 44.4 116.7 112.1 386.0
14 22:20 10.2 96 9.14 9.6 0 0 1015.1 9 20.9 28.0 44.0 115.7 110.8 381.5
14 22:10 10.3 95 9.1 9.5 7 7 1015.1 9 20.8 27.9 43.8 115.1 110.1 379.0
14 22:00 10.6 96 9.37 10 6 7 1015.3 9 21.4 28.2 44.8 117.8 113.5 391.0
14 21:50 10.8 96 9.49 10.2 6 6 1015.2 9 21.7 28.4 45.2 118.9 114.9 395.9
14 21:40 10.8 96 9.49 10.2 11 11 1015.2 9 21.7 28.4 45.2 118.9 114.9 395.9
14 21:30 10.7 96 9.43 10.1 7 7 1015.3 9 21.5 28.3 45.0 118.3 114.2 393.5
14 21:20 11 96 9.61 10.4 7 9 1015.4 8.8 21.9 28.5 45.6 120.0 116.4 400.9
14 21:10 10.9 96 9.55 10.3 9 9 1015.3 8.8 21.8 28.5 45.4 119.4 115.7 398.4
14 21:00 10.9 95 9.45 10.1 7 7 1015.3 8.8 21.6 28.3 45.0 118.3 114.2 393.5
14 20:50 10.8 95 9.39 10 9 9 1015.2 8.8 21.4 28.2 44.8 117.7 113.5 391.0
14 20:40 11.3 95 9.69 10.5 7 7 1015.2 8.8 22.1 28.6 45.8 120.4 117.0 403.3
14 20:30 11.4 95 9.75 10.6 11 13 1015.2 8.8 22.2 28.6 46.0 120.9 117.7 405.8
14 20:20 11.6 95 9.88 10.8 11 11 1015.3 8.8 22.5 28.8 46.4 122.1 119.3 411.2
14 20:10 11.9 95 10.06 11.1 11 11 1015.2 8.8 22.8 29.0 47.0 123.7 121.4 418.6
14 20:00 12.4 95 10.38 11.6 9 11 1015.2 8.8 23.5 29.4 48.1 126.7 125.2 431.8
14 19:50 12.6 95 10.51 11.8 7 9 1015 8.8 23.8 29.6 48.6 127.8 126.7 437.2
14 19:40 12.7 95 10.58 11.9 7 9 1015.1 8.8 23.9 29.7 48.8 128.5 127.5 440.1
14 19:30 12.8 95 10.64 12 7 9 1015.3 8.8 24.0 29.7 49.0 129.1 128.2 442.7
14 19:20 12.9 93 10.48 11.8 7 9 1015.2 8.4 23.7 29.4 48.3 127.0 125.8 434.0
14 19:10 13.2 94 10.79 12.3 0 2 1015 8.2 24.3 29.9 49.4 130.1 129.7 447.8
14 19:00 13.3 94 10.86 12.4 0 0 1015.1 7.2 24.5 29.9 49.7 130.8 130.5 450.8
14 18:50 13.5 93 10.88 12.4 17 20 1015.1 5.4 24.5 29.9 49.6 130.7 130.5 450.6
14 18:40 13.1 91 10.38 11.7 13 15 1014.5 4.6 23.4 29.2 47.7 125.4 123.9 427.7
14 18:30 13.2 91 10.45 11.8 13 13 1014.3 4.6 23.6 29.2 47.9 126.1 124.7 430.5
14 18:20 13.3 91 10.51 11.9 13 15 1014.2 4.6 23.7 29.3 48.1 126.6 125.4 432.9
14 18:10 13.3 92 10.63 12 13 15 1014.1 4.6 24.0 29.5 48.6 128.0 127.1 438.9
14 18:00 13.6 93 10.95 12.5 13 13 1014 4.6 24.6 30.0 49.8 131.2 131.2 453.1
14 17:50 13.7 93 11.01 12.6 9 11 1014 4.6 24.8 30.0 50.0 131.7 131.9 455.6
14 17:40 13.6 92 10.83 12.3 11 11 1013.8 4.6 24.4 29.7 49.3 129.7 129.5 447.1
14 17:30 13.6 92 10.83 12.3 11 13 1013.6 4.6 24.4 29.7 49.3 129.7 129.4 447.0
14 17:20 13.8 92 10.96 12.5 11 13 1013.5 4.6 24.7 29.9 49.7 130.9 131.0 452.3
14 17:10 13.8 93 11.08 12.7 11 13 1013.4 4.6 24.9 30.1 50.2 132.3 132.7 458.3
14 17:00 14 93 11.22 12.9 11 11 1013.4 4.6 25.2 30.3 50.7 133.6 134.3 464.1
14 16:50 14.2 93 11.36 13.1 9 9 1013.5 4.6 25.5 30.5 51.2 134.9 136.0 470.0
14 16:40 14.4 92 11.37 13.1 9 11 1013.5 4.6 25.5 30.4 51.1 134.6 135.8 469.3
14 16:30 14.7 92 11.58 13.4 9 11 1013.4 4.6 25.9 30.7 51.8 136.6 138.3 478.0
14 16:20 14.7 91 11.46 13.2 7 7 1013.1 4.4 25.7 30.4 51.3 135.1 136.5 471.8
14 16:10 14.5 90 11.19 12.9 7 9 1013.1 4.4 25.1 30.0 50.2 132.3 133.0 459.5
14 16:00 14.6 89 11.14 12.8 7 7 1013.1 4.4 25.0 29.9 50.0 131.6 132.1 456.4
14 15:50 14.7 89 11.21 12.9 9 9 1013.1 4.4 25.1 30.0 50.2 132.2 132.9 459.3
14 15:40 14.6 88 11.01 12.6 6 7 1013.1 4.4 24.7 29.7 49.4 130.1 130.3 450.0
14 15:30 13.9 91 10.91 12.5 6 7 1012.9 4.4 24.5 29.7 49.4 130.1 130.0 449.0
14 15:20 13.6 88 10.36 11.7 0 0 1013 4.4 23.4 28.9 47.2 124.2 122.7 423.4
14 15:10 13.6 87 10.24 11.5 9 11 1013 3.8 23.1 28.7 46.7 122.9 121.0 417.5
14 15:00 16 77 10.49 12 15 20 1012.5 0.2 23.5 28.3 46.3 121.8 120.6 416.6
14 14:50 16.6 72 10.17 11.5 15 17 1012.3 0.2 22.8 27.6 44.6 117.4 115.4 398.2
14 14:40 17.3 67 9.87 11.1 19 20 1012.2 0 22.1 26.9 43.0 113.1 110.3 380.8
14 14:30 17.6 65 9.75 10.9 19 19 1012.4 0 21.8 26.6 42.4 111.4 108.4 373.9
14 14:20 18.1 63 9.73 11 13 15 1012.6 0 21.8 26.4 42.0 110.5 107.4 370.7
14 14:10 18.1 63 9.73 11 17 19 1012.8 0 21.8 26.4 42.1 110.5 107.5 370.7
14 14:00 19.3 61 10.12 11.6 11 13 1012.7 0 22.5 26.7 42.9 112.9 110.8 382.6
14 13:50 18.7 63 10.09 11.5 19 20 1012.9 0 22.5 26.8 43.2 113.5 111.3 384.2
14 13:40 17.7 67 10.11 11.5 11 13 1013.2 0 22.6 27.2 43.8 115.2 113.0 390.2
14 13:30 18 67 10.29 11.8 13 15 1013.3 0 23.0 27.4 44.4 116.7 115.0 397.0
14 13:20 17.1 71 10.33 11.8 17 19 1013.5 0 23.1 27.7 45.0 118.5 116.9 403.5
14 13:10 16.8 72 10.29 11.7 17 19 1013.5 0 23.0 27.8 45.1 118.5 116.8 403.2
14 13:00 17 70 10.13 11.5 13 17 1013.6 0 22.7 27.4 44.3 116.5 114.4 394.7
14 12:50 17.2 69 10.1 11.5 17 19 1013.8 0 22.6 27.3 44.1 115.9 113.7 392.4
14 12:40 16.9 71 10.21 11.6 15 17 1013.9 0 22.9 27.6 44.7 117.5 115.6 399.1
14 12:30 16.5 71 9.97 11.2 13 15 1014.2 0 22.4 27.4 44.0 115.6 113.0 389.9
14 12:20 16.3 72 9.99 11.2 17 20 1014.3 0 22.4 27.5 44.1 116.1 113.6 391.9
14 12:10 16.6 70 9.89 11.1 15 17 1014.4 0 22.2 27.2 43.6 114.6 111.8 385.8
14 12:00 16.6 76 10.74 12.4 13 15 1014.5 0 24.0 28.6 47.1 123.9 123.3 426.0
14 11:50 16.1 78 10.69 12.3 17 20 1014.6 0 23.9 28.7 47.2 124.1 123.4 426.3
14 11:40 14.3 80 9.83 10.9 15 19 1014.7 0 22.2 27.8 44.6 117.3 114.4 394.5
14 11:30 13.9 83 9.95 11.1 17 20 1015 0 22.5 28.2 45.4 119.3 116.7 402.5
14 11:20 13.9 82 9.83 10.9 19 20 1015.3 0 22.2 28.0 44.9 118.0 115.1 396.7
14 11:10 13.7 82 9.71 10.7 20 24 1015.4 0 22.0 27.8 44.5 117.0 113.7 392.0
14 11:00 13.5 82 9.59 10.5 19 22 1015.5 0 21.7 27.7 44.1 116.0 112.4 387.3
14 10:50 13.8 81 9.65 10.6 19 20 1015.6 0 21.8 27.7 44.2 116.2 112.8 388.7
14 10:40 13.9 81 9.71 10.7 22 26 1015.6 0 22.0 27.8 44.4 116.7 113.4 391.1
14 10:30 13.7 84 9.95 11 20 24 1015.7 0 22.5 28.3 45.5 119.7 117.1 403.7
14 10:20 13.8 81 9.65 10.6 26 30 1015.9 0 21.8 27.7 44.2 116.2 112.8 388.8
14 10:10 14.3 83 10.2 11.5 19 20 1016.1 0 23.0 28.5 46.3 121.7 119.6 412.8
14 10:00 13.2 83 9.53 10.4 24 26 1016.2 0 21.6 27.7 44.1 115.8 112.0 386.1
14 09:50 13.3 85 9.82 10.8 22 30 1016.3 0 22.2 28.2 45.2 118.9 115.9 399.7
14 09:40 13.2 85 9.76 10.7 20 26 1016.3 0 22.1 28.1 45.0 118.4 115.2 397.2
14 09:30 13 88 9.98 11.1 22 24 1016.3 0 22.6 28.6 46.1 121.2 118.6 409.0
14 09:20 11.8 86 9.05 9.5 22 28 1016.4 0 20.7 27.4 42.8 112.5 107.4 369.7
14 09:10 12.1 89 9.55 10.3 15 17 1016.4 0 21.7 28.1 44.8 117.7 114.0 392.6
14 09:00 11.3 90 9.18 9.7 17 19 1016.2 0 21.0 27.7 43.7 114.7 109.9 378.4
14 08:50 10.9 91 9.05 9.5 17 19 1016.3 3.4 20.7 27.6 43.3 113.8 108.7 374.0
14 08:40 10.8 92 9.1 9.6 15 15 1016.3 3.4 20.8 27.8 43.6 114.5 109.5 377.0
14 08:30 10.7 93 9.14 9.6 13 15 1016.4 3.4 20.9 27.9 43.8 115.1 110.2 379.5
14 08:20 10.4 94 9.06 9.5 13 15 1016.3 3.4 20.7 27.8 43.6 114.6 109.5 376.9

Last Refresh: 15-Jun-2024 00:58:15

Bureau of Meteorology